createdAt,value
2019-04-05T00:00:36.834Z,83.60
2019-04-05T00:03:04.376Z,83.30
2019-04-05T00:05:31.708Z,82.70
2019-04-05T00:07:59.078Z,83.00
2019-04-05T00:10:26.366Z,82.70
2019-04-05T00:12:53.904Z,81.60
2019-04-05T00:15:22.125Z,81.40
2019-04-05T00:17:49.333Z,81.70
2019-04-05T00:20:16.755Z,81.60
2019-04-05T00:22:44.032Z,82.70
2019-04-05T00:25:11.568Z,83.20
2019-04-05T00:27:38.880Z,83.20
2019-04-05T00:30:07.139Z,83.10
2019-04-05T00:32:34.626Z,83.10
2019-04-05T00:35:01.956Z,83.00
2019-04-05T00:37:29.341Z,82.60
2019-04-05T00:39:56.566Z,83.30
2019-04-05T00:42:23.806Z,83.20
2019-04-05T00:44:51.294Z,83.30
2019-04-05T00:47:18.600Z,83.60
2019-04-05T00:49:46.044Z,83.30
2019-04-05T00:52:13.303Z,83.80
2019-04-05T00:54:40.681Z,84.40
2019-04-05T00:57:07.971Z,85.60
2019-04-05T00:59:35.249Z,87.80
2019-04-05T01:02:03.007Z,86.00
2019-04-05T01:04:30.522Z,87.90
2019-04-05T01:06:57.738Z,87.60
2019-04-05T01:09:25.031Z,88.10
2019-04-05T01:11:52.428Z,88.40
2019-04-05T01:14:20.602Z,88.50
2019-04-05T01:16:49.092Z,88.60
2019-04-05T01:19:18.265Z,88.40
2019-04-05T01:21:47.301Z,87.40
2019-04-05T01:24:14.924Z,86.60
2019-04-05T01:26:44.186Z,85.90
2019-04-05T01:29:12.296Z,85.60
2019-04-05T01:31:39.757Z,86.50
2019-04-05T01:34:07.035Z,87.00
2019-04-05T01:36:34.297Z,87.50
2019-04-05T01:39:01.740Z,89.00
2019-04-05T01:41:29.257Z,89.60
2019-04-05T01:43:56.554Z,89.40
2019-04-05T01:46:23.827Z,90.00
2019-04-05T01:48:51.173Z,90.50
2019-04-05T01:51:18.647Z,90.20
2019-04-05T01:53:46.478Z,90.60
2019-04-05T01:56:13.756Z,90.30
2019-04-05T01:58:40.972Z,89.70
2019-04-05T02:01:08.216Z,90.40
2019-04-05T02:03:35.664Z,90.10
2019-04-05T02:06:03.002Z,89.60
2019-04-05T02:08:30.264Z,89.80
2019-04-05T02:10:57.990Z,90.00
2019-04-05T02:13:25.752Z,89.70
2019-04-05T02:16:05.352Z,89.70
2019-04-05T02:18:23.069Z,89.60
2019-04-05T02:20:50.348Z,89.00
2019-04-05T02:23:17.566Z,90.00
2019-04-05T02:25:45.018Z,90.30
2019-04-05T02:28:12.245Z,90.60
2019-04-05T02:30:39.664Z,90.90
2019-04-05T02:33:06.891Z,90.40
2019-04-05T02:35:34.222Z,88.30
2019-04-05T02:38:01.430Z,87.40
2019-04-05T02:40:30.016Z,88.90
2019-04-05T02:42:59.411Z,89.30
2019-04-05T02:45:30.317Z,90.20
2019-04-05T02:48:02.457Z,90.80
2019-04-05T02:50:32.780Z,90.70
2019-04-05T02:53:02.900Z,90.70
2019-04-05T02:55:31.273Z,90.10
2019-04-05T02:58:00.335Z,90.40
2019-04-05T03:00:28.290Z,90.70
2019-04-05T03:02:55.944Z,91.30
2019-04-05T03:05:24.245Z,91.00
2019-04-05T03:07:51.670Z,90.90
2019-04-05T03:11:09.009Z,91.10
2019-04-05T03:13:41.219Z,91.30
2019-04-05T03:16:16.189Z,91.20
2019-04-05T03:18:54.097Z,91.10
2019-04-05T03:21:24.820Z,91.10
2019-04-05T03:23:54.746Z,91.30
2019-04-05T03:26:25.273Z,91.00
2019-04-05T03:28:56.104Z,90.80
2019-04-05T03:31:25.494Z,90.70
2019-04-05T03:33:52.657Z,91.20
2019-04-05T03:36:20.181Z,91.60
2019-04-05T03:38:47.877Z,92.10
2019-04-05T03:41:16.064Z,92.10
2019-04-05T03:43:44.187Z,91.90
2019-04-05T03:46:11.684Z,91.40
2019-04-05T03:48:39.221Z,90.80
2019-04-05T03:51:07.594Z,90.70
2019-04-05T03:53:35.413Z,91.10
2019-04-05T03:56:02.931Z,91.50
2019-04-05T03:58:30.138Z,91.60
2019-04-05T04:00:57.353Z,91.90
2019-04-05T04:03:24.561Z,91.80
2019-04-05T04:05:52.087Z,91.60
2019-04-05T04:08:23.216Z,91.60
2019-04-05T04:10:50.822Z,91.60
2019-04-05T04:13:18.623Z,91.70
2019-04-05T04:15:45.879Z,91.60
2019-04-05T04:18:13.237Z,91.90
2019-04-05T04:20:47.529Z,91.70
2019-04-05T04:23:14.905Z,91.60
2019-04-05T04:25:42.650Z,91.50
2019-04-05T04:28:09.992Z,91.40
2019-04-05T04:30:37.532Z,91.20
2019-04-05T04:33:05.641Z,91.40
2019-04-05T04:35:33.671Z,91.30
2019-04-05T04:38:01.304Z,91.30
2019-04-05T04:40:28.807Z,91.30
2019-04-05T04:42:56.649Z,91.20
2019-04-05T04:45:24.082Z,91.20
2019-04-05T04:47:52.821Z,91.60
2019-04-05T04:50:21.286Z,92.20
2019-04-05T04:52:49.072Z,92.70
2019-04-05T04:55:16.512Z,92.40
2019-04-05T04:57:44.397Z,92.40
2019-04-05T05:00:12.302Z,92.60
2019-04-05T05:02:39.894Z,92.30
2019-04-05T05:05:07.914Z,92.20
2019-04-05T05:07:35.625Z,92.30
2019-04-05T05:10:03.655Z,91.60
2019-04-05T05:12:31.162Z,91.50
2019-04-05T05:14:58.431Z,91.50
2019-04-05T05:17:37.729Z,91.30
2019-04-05T05:19:55.352Z,91.20
2019-04-05T05:22:22.914Z,91.30
2019-04-05T05:24:50.396Z,91.70
2019-04-05T05:27:17.725Z,92.00
2019-04-05T05:29:44.980Z,92.20
2019-04-05T05:32:12.405Z,92.10
2019-04-05T05:34:40.281Z,92.00
2019-04-05T05:37:07.889Z,91.80
2019-04-05T05:39:35.103Z,91.70
2019-04-05T05:42:02.597Z,91.70
2019-04-05T05:44:29.985Z,92.10
2019-04-05T05:46:57.253Z,91.70
2019-04-05T05:49:24.523Z,91.50
2019-04-05T05:51:52.632Z,90.60
2019-04-05T05:54:19.886Z,90.20
2019-04-05T05:56:47.152Z,90.30
2019-04-05T05:59:14.516Z,90.40
2019-04-05T06:01:41.776Z,90.30
2019-04-05T06:04:09.099Z,89.40
2019-04-05T06:06:36.472Z,89.70
2019-04-05T06:09:06.574Z,89.80
2019-04-05T06:11:34.179Z,89.30
2019-04-05T06:14:01.393Z,88.80
2019-04-05T06:16:28.607Z,88.30
2019-04-05T06:18:55.844Z,88.60
2019-04-05T06:21:23.056Z,88.30
2019-04-05T06:23:50.332Z,87.40
2019-04-05T06:26:17.633Z,87.50
2019-04-05T06:28:44.898Z,86.40
2019-04-05T06:31:12.481Z,87.00
2019-04-05T06:33:39.828Z,85.30
2019-04-05T06:36:07.232Z,86.20
2019-04-05T06:38:34.453Z,86.60
2019-04-05T06:41:01.825Z,85.70
2019-04-05T06:43:29.057Z,82.90
2019-04-05T06:45:56.407Z,84.50
2019-04-05T06:48:23.926Z,84.40
2019-04-05T06:50:51.137Z,84.50
2019-04-05T06:53:18.404Z,84.10
2019-04-05T06:55:45.770Z,85.80
2019-04-05T06:58:19.552Z,84.60
2019-04-05T07:00:56.123Z,83.10
2019-04-05T07:03:13.677Z,82.40
2019-04-05T07:05:40.829Z,83.10
2019-04-05T07:08:08.297Z,82.00
2019-04-05T07:10:35.735Z,82.20
2019-04-05T07:13:03.503Z,83.50
2019-04-05T07:15:30.956Z,82.20
2019-04-05T07:17:58.381Z,81.50
2019-04-05T07:20:25.714Z,81.40
2019-04-05T07:22:52.914Z,80.60
2019-04-05T07:25:20.143Z,79.70
2019-04-05T07:27:47.559Z,81.80
2019-04-05T07:30:15.440Z,82.10
2019-04-05T07:32:42.676Z,81.20
2019-04-05T07:35:10.000Z,81.70
2019-04-05T07:37:37.770Z,81.60
2019-04-05T07:40:05.989Z,81.70
2019-04-05T07:42:33.371Z,81.00
2019-04-05T07:45:00.696Z,81.90
2019-04-05T07:47:27.935Z,82.00
2019-04-05T07:49:55.240Z,82.30
2019-04-05T07:52:22.499Z,81.50
2019-04-05T07:54:49.712Z,81.50
2019-04-05T07:57:16.962Z,82.60
2019-04-05T07:59:44.232Z,82.30
2019-04-05T08:02:11.522Z,81.70
2019-04-05T08:04:38.759Z,81.40
2019-04-05T08:07:06.588Z,80.20
2019-04-05T08:09:35.922Z,79.70
2019-04-05T08:12:03.463Z,80.20
2019-04-05T08:14:31.021Z,81.00
2019-04-05T08:16:58.353Z,80.70
2019-04-05T08:19:25.556Z,82.20
2019-04-05T08:21:52.765Z,80.10
2019-04-05T08:24:20.124Z,80.70
2019-04-05T08:26:47.420Z,80.70
2019-04-05T08:29:14.698Z,79.30
2019-04-05T08:31:42.102Z,78.90
2019-04-05T08:34:09.293Z,79.50
2019-04-05T08:36:36.502Z,78.10
2019-04-05T08:39:06.187Z,76.90
2019-04-05T08:41:33.612Z,76.60
2019-04-05T08:44:00.965Z,76.80
2019-04-05T08:46:28.189Z,76.40
2019-04-05T08:48:55.384Z,77.40
2019-04-05T08:51:22.593Z,77.60
2019-04-05T08:53:49.936Z,77.30
2019-04-05T08:56:17.180Z,77.80
2019-04-05T08:58:44.416Z,77.30
2019-04-05T09:01:11.836Z,76.60
2019-04-05T09:03:39.066Z,76.70
2019-04-05T09:06:06.507Z,77.00
2019-04-05T09:08:33.721Z,76.70
2019-04-05T09:11:00.983Z,76.30
2019-04-05T09:13:28.313Z,77.50
2019-04-05T09:15:55.672Z,76.80
2019-04-05T09:18:22.880Z,77.00
2019-04-05T09:20:50.204Z,76.70
2019-04-05T09:23:17.484Z,76.60
2019-04-05T09:25:44.709Z,74.80
2019-04-05T09:28:11.959Z,74.30
2019-04-05T09:30:39.698Z,75.10
2019-04-05T09:33:06.972Z,76.10
2019-04-05T09:35:34.306Z,76.20
2019-04-05T09:38:01.645Z,76.90
2019-04-05T09:40:29.069Z,76.80
2019-04-05T09:42:56.339Z,76.60
2019-04-05T09:45:23.776Z,75.70
2019-04-05T09:47:51.045Z,76.40
2019-04-05T09:50:18.680Z,76.00
2019-04-05T09:52:46.000Z,75.60
2019-04-05T09:55:13.526Z,75.20
2019-04-05T09:57:40.805Z,74.80
2019-04-05T10:00:16.320Z,73.80
2019-04-05T10:02:43.749Z,75.00
2019-04-05T10:05:11.011Z,74.30
2019-04-05T10:07:48.749Z,73.00
2019-04-05T10:10:07.445Z,72.60
2019-04-05T10:12:34.785Z,71.40
2019-04-05T10:15:02.251Z,72.90
2019-04-05T10:17:29.569Z,71.60
2019-04-05T10:19:56.793Z,71.70
2019-04-05T10:22:24.133Z,71.70
2019-04-05T10:24:51.482Z,72.10
2019-04-05T10:27:18.705Z,72.30
2019-04-05T10:29:45.998Z,71.70
2019-04-05T10:32:13.368Z,71.50
2019-04-05T10:34:40.637Z,72.50
2019-04-05T10:37:07.905Z,71.00
2019-04-05T10:39:35.094Z,70.30
2019-04-05T10:42:03.905Z,72.20
2019-04-05T10:44:31.580Z,70.50
2019-04-05T10:46:58.815Z,69.30
2019-04-05T10:49:26.049Z,69.60
2019-04-05T10:51:53.415Z,68.70
2019-04-05T10:54:20.917Z,69.40
2019-04-05T10:56:48.317Z,70.00
2019-04-05T10:59:15.625Z,69.90
2019-04-05T11:01:42.877Z,70.50
2019-04-05T11:04:10.161Z,70.60
2019-04-05T11:06:37.440Z,69.10
2019-04-05T11:09:07.161Z,70.20
2019-04-05T11:11:34.421Z,69.70
2019-04-05T11:14:13.164Z,68.50
2019-04-05T11:16:31.146Z,69.10
2019-04-05T11:19:01.913Z,68.80
2019-04-05T11:21:28.152Z,68.90
2019-04-05T11:23:55.772Z,67.80
2019-04-05T11:26:23.680Z,68.60
2019-04-05T11:28:50.909Z,68.90
2019-04-05T11:31:18.304Z,68.20
2019-04-05T11:33:45.542Z,68.20
2019-04-05T11:36:13.713Z,69.20
2019-04-05T11:38:42.216Z,67.70
2019-04-05T11:41:10.148Z,66.70
2019-04-05T11:43:38.492Z,68.30
2019-04-05T11:46:05.832Z,65.10
2019-04-05T11:48:33.900Z,64.70
2019-04-05T11:51:01.301Z,65.60
2019-04-05T11:53:28.540Z,64.70
2019-04-05T11:55:55.786Z,65.20
2019-04-05T11:58:23.026Z,66.10
2019-04-05T12:01:09.361Z,66.30
2019-04-05T12:03:37.370Z,67.50
2019-04-05T12:06:04.772Z,66.40
2019-04-05T12:08:31.988Z,67.60
2019-04-05T12:10:59.501Z,66.20
2019-04-05T12:13:26.724Z,66.90
2019-04-05T12:15:54.067Z,67.40
2019-04-05T12:18:21.297Z,67.00
2019-04-05T12:20:58.944Z,67.50
2019-04-05T12:23:17.661Z,68.10
2019-04-05T12:25:44.998Z,68.10
2019-04-05T12:28:12.223Z,67.90
2019-04-05T12:30:40.249Z,67.20
2019-04-05T12:33:13.914Z,66.30
2019-04-05T12:35:37.720Z,65.80
2019-04-05T12:38:06.932Z,67.10
2019-04-05T12:40:34.273Z,66.50
2019-04-05T12:43:01.525Z,65.90
2019-04-05T12:45:29.093Z,66.20
2019-04-05T12:47:58.977Z,65.90
2019-04-05T12:50:25.464Z,65.80
2019-04-05T12:52:56.483Z,66.00
2019-04-05T12:55:24.084Z,66.80
2019-04-05T12:57:51.165Z,65.80
2019-04-05T13:00:19.793Z,66.00
2019-04-05T13:02:49.782Z,66.50
2019-04-05T13:05:16.296Z,65.60
2019-04-05T13:07:43.641Z,66.30
2019-04-05T13:10:11.159Z,65.50
2019-04-05T13:12:38.496Z,66.20
2019-04-05T13:15:12.840Z,66.30
2019-04-05T13:17:36.693Z,67.60
2019-04-05T13:20:04.510Z,67.90
2019-04-05T13:22:32.920Z,67.50
2019-04-05T13:25:00.676Z,68.10
2019-04-05T13:27:27.993Z,67.40
2019-04-05T13:29:55.593Z,67.20
2019-04-05T13:32:22.850Z,67.30
2019-04-05T13:34:50.405Z,68.00
2019-04-05T13:37:20.469Z,67.80
2019-04-05T13:39:47.220Z,68.20
2019-04-05T13:42:14.422Z,69.90
2019-04-05T13:44:41.676Z,69.40
2019-04-05T13:47:09.141Z,69.50
2019-04-05T13:49:38.566Z,69.20
2019-04-05T13:52:06.920Z,69.40
2019-04-05T13:54:34.359Z,68.70
2019-04-05T13:57:01.708Z,68.70
2019-04-05T13:59:29.071Z,69.20
2019-04-05T14:02:06.092Z,69.40
2019-04-05T14:04:25.721Z,69.50
2019-04-05T14:06:53.595Z,69.30
2019-04-05T14:09:21.755Z,69.70
2019-04-05T14:11:49.172Z,69.00
2019-04-05T14:14:16.669Z,69.50
2019-04-05T14:16:44.065Z,69.50
2019-04-05T14:19:11.316Z,69.40
2019-04-05T14:21:41.155Z,70.10
2019-04-05T14:24:07.927Z,69.20
2019-04-05T14:26:35.162Z,69.60
2019-04-05T14:29:03.730Z,70.00
2019-04-05T14:31:32.160Z,70.50
2019-04-05T14:33:59.673Z,70.70
2019-04-05T14:36:26.993Z,70.40
2019-04-05T14:38:54.354Z,69.80
2019-04-05T14:41:21.665Z,70.40
2019-04-05T14:43:48.909Z,70.70
2019-04-05T14:46:16.223Z,71.20
2019-04-05T14:48:43.465Z,70.30
2019-04-05T14:51:10.699Z,70.40
2019-04-05T14:53:38.225Z,71.00
2019-04-05T14:56:05.421Z,71.00
2019-04-05T14:58:32.916Z,70.30
2019-04-05T15:01:02.005Z,70.70
2019-04-05T15:03:29.349Z,71.30
2019-04-05T15:05:58.466Z,71.30
2019-04-05T15:08:25.721Z,72.00
2019-04-05T15:10:56.550Z,71.90
2019-04-05T15:13:22.092Z,72.20
2019-04-05T15:15:49.359Z,72.00
2019-04-05T15:18:19.456Z,72.20
2019-04-05T15:20:46.151Z,72.50
2019-04-05T15:23:14.043Z,72.60
2019-04-05T15:25:42.024Z,72.90
2019-04-05T15:28:09.227Z,72.20
2019-04-05T15:30:36.480Z,71.50
2019-04-05T15:33:05.107Z,71.90
2019-04-05T15:35:32.474Z,72.60
2019-04-05T15:38:02.062Z,72.60
2019-04-05T15:40:31.065Z,73.00
2019-04-05T15:42:58.348Z,72.90
2019-04-05T15:45:25.812Z,72.70
2019-04-05T15:47:53.525Z,73.20
2019-04-05T15:50:22.034Z,72.50
2019-04-05T15:52:49.775Z,72.70
2019-04-05T15:55:17.260Z,72.90
2019-04-05T15:57:44.657Z,72.70
2019-04-05T16:00:15.487Z,72.90
2019-04-05T16:02:43.158Z,73.30
2019-04-05T16:05:10.828Z,74.10
2019-04-05T16:07:38.101Z,74.00
2019-04-05T16:10:06.157Z,74.50
2019-04-05T16:12:33.436Z,74.90
2019-04-05T16:15:00.773Z,75.40
2019-04-05T16:17:28.218Z,75.90
2019-04-05T16:19:55.751Z,75.80
2019-04-05T16:22:31.108Z,76.60
2019-04-05T16:24:52.505Z,77.00
2019-04-05T16:27:19.789Z,77.60
2019-04-05T16:29:47.066Z,78.20
2019-04-05T16:32:14.386Z,78.50
2019-04-05T16:34:41.621Z,78.70
2019-04-05T16:37:08.898Z,79.20
2019-04-05T16:39:36.234Z,79.30
2019-04-05T16:42:03.708Z,79.40
2019-04-05T16:44:31.138Z,79.70
2019-04-05T16:46:58.436Z,80.30
2019-04-05T16:49:25.756Z,80.60
2019-04-05T16:51:53.024Z,81.10
2019-04-05T16:54:20.358Z,81.50
2019-04-05T16:56:47.630Z,82.40
2019-04-05T16:59:14.886Z,83.00
2019-04-05T17:01:42.264Z,83.80
2019-04-05T17:04:09.585Z,83.70
2019-04-05T17:06:38.994Z,83.40
2019-04-05T17:09:07.771Z,83.90
2019-04-05T17:11:35.225Z,84.80
2019-04-05T17:14:02.608Z,85.60
2019-04-05T17:16:29.844Z,87.00
2019-04-05T17:18:57.197Z,87.80
2019-04-05T17:21:24.661Z,88.20
2019-04-05T17:23:51.907Z,89.30
2019-04-05T17:26:19.359Z,90.00
2019-04-05T17:28:46.627Z,90.10
2019-04-05T17:31:13.985Z,90.00
2019-04-05T17:33:41.337Z,90.40
2019-04-05T17:36:08.583Z,90.60
2019-04-05T17:38:35.821Z,91.10
2019-04-05T17:41:04.298Z,91.20
2019-04-05T17:43:31.676Z,91.40
2019-04-05T17:45:58.909Z,91.50
2019-04-05T17:48:26.306Z,92.10
2019-04-05T17:50:53.626Z,92.50
2019-04-05T17:53:20.884Z,93.20
2019-04-05T17:55:48.239Z,93.40
2019-04-05T17:58:17.909Z,93.20
2019-04-05T18:00:45.862Z,93.60
2019-04-05T18:03:13.522Z,93.70
2019-04-05T18:05:40.840Z,93.90
2019-04-05T18:08:08.375Z,93.90
2019-04-05T18:10:35.779Z,94.20
2019-04-05T18:13:03.016Z,94.30
2019-04-05T18:15:30.391Z,94.70
2019-04-05T18:17:57.773Z,94.80
2019-04-05T18:20:25.004Z,94.90
2019-04-05T18:22:52.395Z,95.20
2019-04-05T18:25:20.053Z,95.00
2019-04-05T18:27:48.378Z,95.10
2019-04-05T18:30:17.604Z,95.10
2019-04-05T18:32:45.661Z,94.70
2019-04-05T18:35:13.051Z,94.40
2019-04-05T18:37:40.527Z,94.30
2019-04-05T18:40:07.963Z,94.50
2019-04-05T18:42:35.555Z,94.60
2019-04-05T18:45:03.241Z,94.70
2019-04-05T18:47:31.266Z,94.10
2019-04-05T18:50:03.128Z,94.30
2019-04-05T18:52:28.752Z,94.20
2019-04-05T18:54:56.587Z,94.80
2019-04-05T18:57:24.052Z,95.20
2019-04-05T18:59:51.428Z,94.30
2019-04-05T19:02:18.783Z,94.20
2019-04-05T19:04:46.264Z,94.30
2019-04-05T19:07:13.753Z,94.40
2019-04-05T19:09:41.273Z,94.50
2019-04-05T19:12:08.692Z,94.20
2019-04-05T19:14:35.927Z,93.90
2019-04-05T19:17:03.201Z,93.70
2019-04-05T19:19:30.626Z,94.50
2019-04-05T19:21:57.908Z,94.40
2019-04-05T19:24:25.245Z,94.10
2019-04-05T19:26:52.736Z,93.90
2019-04-05T19:29:20.197Z,93.60
2019-04-05T19:49:14.006Z,94.10
2019-04-05T19:51:41.327Z,94.10
2019-04-05T19:54:08.674Z,94.70
2019-04-05T19:56:35.949Z,94.50
2019-04-05T19:59:03.228Z,94.80
2019-04-05T20:01:30.529Z,94.50
2019-04-05T20:03:57.912Z,94.80
2019-04-05T20:06:25.373Z,94.70
2019-04-05T20:08:52.792Z,94.30
2019-04-05T20:11:20.060Z,94.40
2019-04-05T20:13:47.312Z,94.20
2019-04-05T20:16:14.576Z,94.20
2019-04-05T20:18:41.797Z,94.40
2019-04-05T20:21:09.069Z,94.20
2019-04-05T20:23:42.986Z,93.90
2019-04-05T20:26:05.808Z,94.20
2019-04-05T20:28:33.045Z,94.20
2019-04-05T20:31:00.284Z,94.10
2019-04-05T20:33:27.732Z,94.10
2019-04-05T20:35:54.944Z,94.20
2019-04-05T20:38:22.285Z,93.80
2019-04-05T20:40:49.747Z,93.80
2019-04-05T20:43:17.101Z,93.90
2019-04-05T20:45:44.503Z,94.20
2019-04-05T20:48:11.951Z,94.20
2019-04-05T20:50:39.291Z,94.30
2019-04-05T20:53:06.517Z,94.10
2019-04-05T20:55:34.208Z,94.10
2019-04-05T20:58:01.445Z,94.20
2019-04-05T21:00:28.794Z,94.00
2019-04-05T21:02:56.124Z,94.00
2019-04-05T21:05:25.548Z,94.30
2019-04-05T21:07:52.660Z,94.00
2019-04-05T21:10:20.000Z,94.10
2019-04-05T21:12:47.525Z,94.50
2019-04-05T21:15:14.982Z,94.30
2019-04-05T21:17:42.180Z,94.40
2019-04-05T21:20:09.784Z,94.40
2019-04-05T21:22:37.036Z,94.40
2019-04-05T21:25:05.018Z,94.40
2019-04-05T21:27:32.392Z,94.40
2019-04-05T21:29:59.794Z,94.70
2019-04-05T21:32:27.032Z,94.70
2019-04-05T21:34:54.272Z,94.70
2019-04-05T21:37:21.512Z,94.80
2019-04-05T21:39:48.718Z,94.80
2019-04-05T21:42:15.960Z,94.80
2019-04-05T21:44:43.193Z,95.10
2019-04-05T21:47:11.454Z,95.00
2019-04-05T21:49:38.636Z,95.30
2019-04-05T21:52:05.873Z,95.20
2019-04-05T21:54:33.188Z,95.20
2019-04-05T21:57:00.439Z,95.40
2019-04-05T21:59:27.681Z,95.20
2019-04-05T22:01:55.409Z,95.70
2019-04-05T22:04:22.629Z,95.90
2019-04-05T22:06:49.958Z,95.80
2019-04-05T22:09:17.162Z,95.90
2019-04-05T22:11:44.412Z,96.00
2019-04-05T22:14:11.644Z,96.40
2019-04-05T22:16:38.877Z,96.70
2019-04-05T22:19:06.093Z,96.70
2019-04-05T22:21:33.358Z,96.80
2019-04-05T22:24:00.562Z,97.20
2019-04-05T22:26:27.908Z,98.10
2019-04-05T22:28:55.271Z,97.20
2019-04-05T22:31:22.647Z,97.10
2019-04-05T22:33:50.001Z,96.80
2019-04-05T22:36:17.351Z,97.50
2019-04-05T22:38:44.652Z,97.30
2019-04-05T22:41:12.084Z,97.00
2019-04-05T22:43:39.524Z,96.70
2019-04-05T22:46:07.118Z,96.80
2019-04-05T22:48:35.305Z,97.10
2019-04-05T22:51:02.561Z,97.40
2019-04-05T22:53:29.792Z,97.40
2019-04-05T22:55:57.148Z,97.80
2019-04-05T22:58:24.634Z,97.70
2019-04-05T23:00:51.888Z,97.60
2019-04-05T23:03:19.266Z,97.60
2019-04-05T23:05:46.525Z,97.10
2019-04-05T23:08:13.755Z,96.90
2019-04-05T23:10:41.016Z,96.70
2019-04-05T23:13:08.364Z,96.40
2019-04-05T23:15:35.680Z,96.60
2019-04-05T23:18:03.141Z,96.70
2019-04-05T23:20:30.453Z,96.70
2019-04-05T23:22:57.781Z,96.70
2019-04-05T23:25:25.044Z,96.70
2019-04-05T23:27:52.271Z,97.00
2019-04-05T23:30:20.605Z,97.20
2019-04-05T23:32:47.940Z,97.10
2019-04-05T23:35:15.196Z,97.50
2019-04-05T23:37:42.549Z,97.50
2019-04-05T23:40:09.962Z,97.40
2019-04-05T23:42:37.329Z,97.40
2019-04-05T23:45:04.808Z,98.30
2019-04-05T23:47:32.337Z,97.70
2019-04-05T23:50:00.624Z,97.80
2019-04-05T23:52:27.940Z,97.40
2019-04-05T23:54:55.154Z,97.30
2019-04-05T23:57:22.367Z,97.50
2019-04-05T23:59:49.620Z,97.10
